Time;durP1;ratioP1;P1;durP2;ratioP2;P2;SDS_P1;SDS_P2;PMS_P1;PMS_P2;Temp;Humidity;BMP_temperature;BMP_pressure;BME280_temperature;BME280_humidity;BME280_pressure;Samples;Min_cycle;Max_cycle;Signal;HPM_P1;HPM_P2
2022/06/30 00:02:12;;;;;;;8.45;4.00;;;;;;;20.91;67.54;101096.72;5032210;28;20049;-50
2022/06/30 00:04:54;;;;;;;9.07;3.67;;;;;;;20.93;67.65;101097.50;5032793;28;20045;-50
2022/06/30 00:07:24;;;;;;;7.18;3.40;;;;;;;20.92;67.86;101098.41;5036334;28;20064;-52
2022/06/30 00:09:53;;;;;;;9.38;4.32;;;;;;;20.92;67.77;101090.53;5036337;28;20601;-51
2022/06/30 00:12:21;;;;;;;9.00;4.25;;;;;;;20.93;67.86;101086.97;5036440;28;20077;-51
2022/06/30 00:14:50;;;;;;;10.15;5.07;;;;;;;20.94;68.02;101086.03;5034829;28;20153;-49
2022/06/30 00:17:21;;;;;;;11.73;5.10;;;;;;;20.93;68.00;101079.06;5034608;28;20055;-49
2022/06/30 00:19:56;;;;;;;10.73;4.20;;;;;;;20.92;67.77;101093.16;5034730;28;20103;-49
2022/06/30 00:22:23;;;;;;;7.95;4.00;;;;;;;20.86;67.90;101093.44;5036387;28;20136;-49
2022/06/30 00:24:50;;;;;;;9.85;4.60;;;;;;;20.84;67.81;101090.00;5036373;28;20155;-52
2022/06/30 00:27:19;;;;;;;13.88;4.68;;;;;;;20.81;67.83;101096.28;5036076;28;20060;-49
2022/06/30 00:29:49;;;;;;;9.82;4.90;;;;;;;20.79;67.98;101104.22;5035499;28;20454;-49
2022/06/30 00:32:24;;;;;;;9.75;4.85;;;;;;;20.79;68.06;101098.09;5036100;28;20156;-49
2022/06/30 00:34:55;;;;;;;9.43;4.75;;;;;;;20.79;67.95;101098.09;5035743;28;20071;-49
2022/06/30 00:37:22;;;;;;;8.32;4.25;;;;;;;20.76;68.09;101099.09;5035958;28;20509;-49
2022/06/30 00:39:52;;;;;;;7.15;4.30;;;;;;;20.74;67.97;101095.66;5036141;28;20041;-49
2022/06/30 00:42:22;;;;;;;7.78;4.40;;;;;;;20.75;68.21;101102.66;5036042;28;20128;-49
2022/06/30 00:44:52;;;;;;;9.07;5.13;;;;;;;20.75;68.21;101100.00;5035374;28;20528;-49
2022/06/30 00:47:20;;;;;;;8.75;5.15;;;;;;;20.75;68.13;101097.38;5036043;28;20085;-51
2022/06/30 00:49:48;;;;;;;9.23;5.63;;;;;;;20.74;67.94;101086.91;5035773;28;20049;-50
2022/06/30 00:52:18;;;;;;;6.88;4.97;;;;;;;20.72;67.83;101080.84;5035301;28;20049;-50
2022/06/30 00:54:49;;;;;;;6.18;4.22;;;;;;;20.68;68.12;101080.13;5035457;28;20049;-48
2022/06/30 00:57:20;;;;;;;7.80;4.47;;;;;;;20.65;68.25;101074.16;5035759;28;20060;-50
2022/06/30 00:59:54;;;;;;;6.28;4.65;;;;;;;20.62;68.08;101077.78;5035364;28;20741;-52
2022/06/30 01:02:24;;;;;;;7.47;4.30;;;;;;;20.58;67.90;101075.34;5035601;28;20111;-52
2022/06/30 01:04:54;;;;;;;7.43;4.80;;;;;;;20.54;67.93;101079.91;5035325;28;20075;-50
2022/06/30 01:07:28;;;;;;;7.63;4.63;;;;;;;20.52;67.95;101079.13;5034391;28;20055;-51
2022/06/30 01:12:44;;;;;;;9.68;4.63;;;;;;;20.48;67.84;101088.06;5028296;28;20092;-50
2022/06/30 01:15:21;;;;;;;9.02;4.53;;;;;;;20.45;68.01;101077.69;5027391;28;20057;-52
2022/06/30 01:17:57;;;;;;;8.18;4.68;;;;;;;20.43;67.83;101071.63;5030827;28;20080;-52
2022/06/30 01:20:30;;;;;;;8.98;4.45;;;;;;;20.41;67.86;101060.31;5031067;28;20057;-52
2022/06/30 01:23:05;;;;;;;8.15;4.45;;;;;;;20.39;67.76;101056.84;5029621;28;20053;-52
2022/06/30 01:25:34;;;;;;;6.30;4.63;;;;;;;20.35;68.24;101056.13;5026434;28;20518;-52
2022/06/30 01:28:06;;;;;;;5.80;3.95;;;;;;;20.31;68.29;101069.50;5024803;28;20493;-49
2022/06/30 01:30:36;;;;;;;9.15;4.57;;;;;;;20.28;68.16;101075.72;5014987;28;20053;-49
2022/06/30 01:33:07;;;;;;;7.35;4.43;;;;;;;20.26;68.11;101076.72;5031672;28;20056;-49
2022/06/30 01:35:34;;;;;;;7.13;4.70;;;;;;;20.24;68.33;101070.66;5034707;28;20061;-49
2022/06/30 01:38:02;;;;;;;7.93;4.95;;;;;;;20.24;68.44;101062.75;5031184;28;20049;-51
2022/06/30 01:40:33;;;;;;;9.90;4.80;;;;;;;20.26;68.54;101066.19;5032442;28;20050;-49
2022/06/30 01:43:05;;;;;;;9.20;4.95;;;;;;;20.25;68.69;101059.19;5034762;28;20053;-49
2022/06/30 01:45:33;;;;;;;8.43;4.72;;;;;;;20.25;68.67;101064.47;5034858;28;20053;-49
2022/06/30 01:48:03;;;;;;;9.35;4.80;;;;;;;20.26;68.54;101074.06;5033538;28;20045;-49
2022/06/30 01:50:31;;;;;;;9.77;4.65;;;;;;;20.25;68.72;101069.72;5024333;28;20053;-50
2022/06/30 01:52:59;;;;;;;7.40;4.63;;;;;;;20.25;68.79;101075.00;5033929;28;20063;-50
2022/06/30 01:55:29;;;;;;;7.80;5.45;;;;;;;20.24;68.89;101076.78;5034221;28;20046;-50
2022/06/30 01:57:59;;;;;;;7.53;4.63;;;;;;;20.23;68.77;101084.75;5033784;28;20085;-52
2022/06/30 02:00:28;;;;;;;9.57;5.03;;;;;;;20.20;68.67;101085.72;5033898;28;20485;-48
2022/06/30 02:02:58;;;;;;;6.53;4.68;;;;;;;20.18;68.73;101077.91;5034111;28;20049;-52
2022/06/30 02:05:29;;;;;;;7.60;4.63;;;;;;;20.17;68.62;101084.09;5033581;28;20045;-48
2022/06/30 02:08:05;;;;;;;7.45;5.43;;;;;;;20.15;68.61;101085.94;5033285;28;20056;-49
2022/06/30 02:10:35;;;;;;;9.25;4.82;;;;;;;20.13;68.67;101090.41;5034173;28;20053;-49
2022/06/30 02:13:06;;;;;;;8.57;5.13;;;;;;;20.12;68.40;101091.31;5034439;28;20064;-49
2022/06/30 02:15:36;;;;;;;7.38;4.50;;;;;;;20.09;68.41;101096.72;5033174;28;20057;-48
2022/06/30 02:18:07;;;;;;;6.00;4.10;;;;;;;20.07;68.72;101093.28;5034304;28;20053;-49
2022/06/30 02:20:37;;;;;;;8.23;5.35;;;;;;;20.06;68.50;101086.31;5033999;28;20057;-48
2022/06/30 02:23:05;;;;;;;9.35;4.78;;;;;;;20.07;68.43;101092.44;5034029;28;20073;-48
2022/06/30 02:25:37;;;;;;;8.40;5.30;;;;;;;20.06;68.51;101096.84;5033987;28;20054;-49
2022/06/30 02:28:05;;;;;;;10.38;4.82;;;;;;;20.05;68.34;101097.75;5032902;28;20057;-49
2022/06/30 02:30:35;;;;;;;8.68;4.70;;;;;;;20.03;68.41;101089.06;5033424;28;20108;-49
2022/06/30 02:33:03;;;;;;;7.45;4.78;;;;;;;20.04;68.63;101092.56;5033734;28;20057;-51
2022/06/30 02:35:32;;;;;;;8.98;5.35;;;;;;;20.03;68.64;101093.47;5033452;28;20064;-51
2022/06/30 02:38:11;;;;;;;8.48;4.82;;;;;;;20.02;68.62;101090.00;5033696;28;20041;-49
2022/06/30 02:40:43;;;;;;;8.60;5.10;;;;;;;20.03;68.59;101090.84;5033743;28;20057;-49
2022/06/30 02:43:12;;;;;;;8.73;5.80;;;;;;;20.02;68.50;101092.63;5033818;28;20053;-49
2022/06/30 02:45:41;;;;;;;7.97;4.55;;;;;;;20.00;68.65;101091.84;5032652;28;20373;-48
2022/06/30 02:48:11;;;;;;;8.80;5.10;;;;;;;20.03;68.55;101093.47;5033328;28;20081;-48
2022/06/30 02:50:43;;;;;;;10.02;5.88;;;;;;;20.01;68.58;101111.97;5033467;28;20045;-49
2022/06/30 02:53:12;;;;;;;9.30;5.63;;;;;;;19.99;68.71;101105.91;5033758;28;20049;-49
2022/06/30 02:55:44;;;;;;;8.40;4.75;;;;;;;19.99;68.81;101111.19;5033474;28;20053;-49
2022/06/30 02:58:15;;;;;;;9.32;5.55;;;;;;;19.98;68.80;101114.72;5033289;28;20439;-48
2022/06/30 03:00:51;;;;;;;6.88;4.80;;;;;;;19.99;69.08;101116.44;5033471;28;20064;-50
2022/06/30 03:03:31;;;;;;;8.13;5.50;;;;;;;20.01;68.93;101109.34;5033178;28;20092;-49
2022/06/30 03:05:57;;;;;;;9.15;4.82;;;;;;;20.03;68.98;101106.66;5033014;28;20064;-49
2022/06/30 03:08:24;;;;;;;10.52;5.15;;;;;;;20.05;69.16;101107.44;5033336;28;20061;-50
2022/06/30 03:10:53;;;;;;;7.47;4.68;;;;;;;20.07;69.11;101105.59;5033393;28;20049;-49
2022/06/30 03:13:22;;;;;;;9.25;5.40;;;;;;;20.10;69.39;101114.22;5033345;28;20045;-50
2022/06/30 03:15:50;;;;;;;7.45;4.72;;;;;;;20.15;69.28;101117.50;5032489;28;20423;-52
2022/06/30 03:18:18;;;;;;;8.25;4.80;;;;;;;20.20;69.31;101109.41;5033155;28;20509;-52
2022/06/30 03:20:48;;;;;;;7.03;5.07;;;;;;;20.26;69.27;101105.66;5032810;28;20756;-48
2022/06/30 03:23:16;;;;;;;11.68;5.40;;;;;;;20.31;69.51;101117.75;5033148;28;20132;-49
2022/06/30 03:25:46;;;;;;;9.68;5.40;;;;;;;20.36;69.74;101120.19;5033300;28;20060;-49
2022/06/30 03:28:21;;;;;;;10.05;5.28;;;;;;;20.41;69.74;101115.59;5033400;28;20092;-49
2022/06/30 03:30:50;;;;;;;;;;;;;;;20.42;70.38;101114.69;5033573;28;20089;-51
2022/06/30 03:33:27;;;;;;;7.50;4.75;;;;;;;20.47;69.89;101123.22;5033349;28;19987;-50
2022/06/30 03:35:56;;;;;;;8.95;5.43;;;;;;;20.51;69.79;101127.44;5033144;28;20057;-52
2022/06/30 03:38:23;;;;;;;11.65;5.80;;;;;;;20.55;69.96;101129.03;5033086;28;20146;-49
2022/06/30 03:40:52;;;;;;;14.35;6.20;;;;;;;20.60;70.07;101134.09;5035099;28;20075;-49
2022/06/30 03:43:29;;;;;;;11.43;6.05;;;;;;;20.65;69.97;101140.84;5036664;28;20050;-49
2022/06/30 03:46:05;;;;;;;9.27;6.25;;;;;;;20.68;70.17;101146.00;5036828;28;20049;-51
2022/06/30 03:48:35;;;;;;;9.57;5.50;;;;;;;20.72;70.26;101147.56;5036824;28;20049;-49
2022/06/30 03:51:02;;;;;;;9.60;6.10;;;;;;;20.78;70.49;101163.09;5036949;28;20046;-49
2022/06/30 03:53:29;;;;;;;16.23;6.25;;;;;;;20.83;70.36;101170.84;5036326;28;20534;-49
2022/06/30 03:55:57;;;;;;;15.82;5.72;;;;;;;20.90;70.60;101179.31;5031780;28;20076;-52
2022/06/30 03:58:41;;;;;;;11.70;5.53;;;;;;;20.93;70.37;101184.47;5036835;28;20053;-49
2022/06/30 04:01:08;;;;;;;8.95;4.97;;;;;;;20.94;70.56;101191.44;5036782;28;20153;-49
2022/06/30 04:03:36;;;;;;;12.95;6.15;;;;;;;20.95;70.78;101187.88;5036234;28;20397;-49
2022/06/30 04:06:09;;;;;;;17.75;6.60;;;;;;;20.97;70.79;101191.31;5036378;28;20466;-49
2022/06/30 04:08:39;;;;;;;21.15;8.30;;;;;;;20.98;70.73;101193.00;5036643;28;20128;-49
2022/06/30 04:11:08;;;;;;;20.48;8.95;;;;;;;20.99;70.69;101200.00;5036452;28;20132;-52
2022/06/30 04:13:48;;;;;;;29.33;12.70;;;;;;;21.02;70.72;101195.44;5035956;28;20570;-48
2022/06/30 04:16:23;;;;;;;35.20;16.13;;;;;;;21.03;70.71;101191.03;5035628;28;20156;-48
2022/06/30 04:18:51;;;;;;;31.77;13.38;;;;;;;21.06;70.51;101188.25;5036471;28;20057;-49
2022/06/30 04:21:18;;;;;;;31.95;12.57;;;;;;;21.11;70.65;101183.63;5036479;28;20057;-49
2022/06/30 04:23:48;;;;;;;38.40;14.18;;;;;;;21.16;70.49;101184.28;5035982;28;20061;-49
2022/06/30 04:26:18;;;;;;;34.53;13.45;;;;;;;21.22;70.65;101175.22;5036188;28;20057;-50
2022/06/30 04:28:55;;;;;;;26.75;11.10;;;;;;;21.26;70.54;101177.69;5036133;28;20057;-49
2022/06/30 04:34:11;;;;;;;24.90;7.95;;;;;;;21.36;70.30;101199.25;5035844;28;20540;-49
2022/06/30 04:36:41;;;;;;;17.92;8.55;;;;;;;21.40;70.45;101199.03;5036332;28;20064;-49
2022/06/30 04:39:07;;;;;;;15.68;6.70;;;;;;;21.45;70.13;101197.97;5035421;28;20454;-49
2022/06/30 04:41:34;;;;;;;19.77;7.60;;;;;;;21.50;70.07;101201.25;5036068;28;20395;-52
2022/06/30 04:44:17;;;;;;;16.10;6.53;;;;;;;21.58;69.54;101184.13;5035760;28;20064;-51
2022/06/30 04:46:45;;;;;;;15.95;6.38;;;;;;;21.67;69.72;101183.69;5035872;28;20119;-49
2022/06/30 04:49:13;;;;;;;12.35;5.10;;;;;;;21.78;69.32;101191.09;5035652;28;20049;-49
2022/06/30 04:51:41;;;;;;;15.18;5.50;;;;;;;21.88;69.03;101196.81;5035062;28;20060;-49
2022/06/30 04:54:12;;;;;;;10.00;5.10;;;;;;;21.95;68.76;101209.63;5030830;28;20049;-48
2022/06/30 04:56:42;;;;;;;8.48;4.60;;;;;;;22.02;68.53;101226.88;5035814;28;20132;-51
2022/06/30 04:59:25;;;;;;;13.43;4.40;;;;;;;22.08;68.32;101219.63;5035734;28;20049;-49
2022/06/30 05:01:55;;;;;;;6.88;4.10;;;;;;;22.11;68.31;101211.56;5035574;28;20056;-51
2022/06/30 05:04:23;;;;;;;11.40;5.38;;;;;;;22.12;68.28;101221.19;5034901;28;20367;-51
2022/06/30 05:06:52;;;;;;;10.15;4.07;;;;;;;22.13;68.46;101222.91;5035525;28;20063;-50
2022/06/30 05:09:22;;;;;;;5.90;3.72;;;;;;;22.14;68.49;101230.75;5035011;28;20437;-49
2022/06/30 05:11:51;;;;;;;7.03;3.88;;;;;;;22.15;68.33;101231.59;5035317;28;20049;-49
2022/06/30 05:14:21;;;;;;;6.25;4.70;;;;;;;22.16;68.27;101235.97;5034755;28;20052;-49
2022/06/30 05:16:49;;;;;;;10.00;4.05;;;;;;;22.18;68.29;101236.75;5034887;28;20053;-49
2022/06/30 05:19:27;;;;;;;12.82;4.72;;;;;;;22.21;68.25;101239.22;5034739;28;20049;-50
2022/06/30 05:21:54;;;;;;;7.80;4.70;;;;;;;22.23;68.26;101234.72;5034966;28;20057;-48
2022/06/30 05:27:07;;;;;;;6.27;3.97;;;;;;;22.26;68.02;101237.22;5034954;28;20151;-49
2022/06/30 05:29:37;;;;;;;11.88;4.22;;;;;;;22.28;68.00;101238.00;5034931;28;20045;-49
2022/06/30 05:32:15;;;;;;;8.75;4.57;;;;;;;22.29;67.77;101240.56;5035132;28;20053;-49
2022/06/30 05:34:44;;;;;;;7.07;4.47;;;;;;;22.29;67.72;101229.13;5034856;28;20053;-51
2022/06/30 05:37:14;;;;;;;10.65;4.65;;;;;;;22.28;67.67;101230.06;5034891;28;20053;-49
2022/06/30 05:39:42;;;;;;;10.05;5.38;;;;;;;22.28;67.70;101232.72;5034599;28;20053;-49
2022/06/30 05:42:09;;;;;;;15.93;5.40;;;;;;;22.28;67.90;101227.44;5034450;28;20473;-52
2022/06/30 05:44:51;;;;;;;7.05;5.30;;;;;;;22.31;67.85;101224.63;5034405;28;20136;-50
2022/06/30 05:47:21;;;;;;;9.73;5.03;;;;;;;22.31;67.96;101227.28;5034858;28;20055;-49
2022/06/30 05:49:51;;;;;;;7.97;5.18;;;;;;;22.32;67.93;101224.56;5034948;28;20049;-49
2022/06/30 05:52:21;;;;;;;10.45;5.57;;;;;;;22.32;67.84;101218.44;5034390;28;20053;-49
2022/06/30 05:54:51;;;;;;;10.65;5.50;;;;;;;22.34;67.88;101216.56;5034098;28;20148;-49
2022/06/30 05:57:22;;;;;;;10.05;5.55;;;;;;;22.36;67.76;101222.63;5033981;28;20153;-48
2022/06/30 06:00:03;;;;;;;11.50;5.72;;;;;;;22.38;67.53;101212.88;5034587;28;20049;-50
2022/06/30 06:02:33;;;;;;;11.05;5.85;;;;;;;22.37;67.49;101211.13;5031568;28;20053;-50
2022/06/30 06:05:03;;;;;;;14.52;6.65;;;;;;;22.37;67.59;101208.47;5034068;28;20053;-49
2022/06/30 06:07:39;;;;;;;12.45;5.63;;;;;;;22.39;67.46;101209.28;5028626;28;20057;-49
2022/06/30 06:10:08;;;;;;;11.38;5.60;;;;;;;22.39;67.52;101209.28;5030222;28;20130;-50
2022/06/30 06:12:34;;;;;;;6.63;3.67;;;;;;;22.40;67.41;101211.00;5034112;28;20049;-49
2022/06/30 06:15:19;;;;;;;8.70;3.92;;;;;;;22.44;67.02;101199.34;5033936;28;20064;-49
2022/06/30 06:17:49;;;;;;;8.05;4.20;;;;;;;22.45;67.10;101177.28;5033864;28;20068;-49
2022/06/30 06:20:18;;;;;;;6.38;3.55;;;;;;;22.47;67.18;101156.94;5033815;28;20049;-49
2022/06/30 06:22:46;;;;;;;11.18;3.58;;;;;;;22.51;67.20;101145.28;5033884;28;20111;-51
2022/06/30 06:25:15;;;;;;;14.40;4.13;;;;;;;22.54;67.09;101128.41;5034057;28;20371;-50
2022/06/30 06:29:05;;;;;;;33.28;4.60;;;;;;;22.45;67.02;101102.47;5033733;28;20112;-52
2022/06/30 06:30:50;;;;;;;7.60;3.47;;;;;;;22.35;67.32;101096.78;5034143;28;20057;-49
2022/06/30 06:33:26;;;;;;;7.95;4.13;;;;;;;22.25;67.79;101058.59;5033313;28;20132;-50
2022/06/30 06:35:53;;;;;;;13.18;4.80;;;;;;;22.09;68.21;101042.69;5032671;28;20060;-52
2022/06/30 06:38:21;;;;;;;7.72;4.63;;;;;;;21.96;68.79;101026.59;5033653;28;20088;-50
2022/06/30 06:40:49;;;;;;;9.68;4.60;;;;;;;21.86;69.15;101012.16;5033152;28;20128;-52
2022/06/30 06:46:02;;;;;;;15.77;4.82;;;;;;;21.81;69.59;100979.00;5033410;28;20057;-50
2022/06/30 06:48:32;;;;;;;11.48;5.70;;;;;;;21.78;69.79;100990.56;5031737;28;20057;-49
2022/06/30 06:51:02;;;;;;;11.45;4.97;;;;;;;21.73;70.01;100998.72;5030159;28;20047;-52
2022/06/30 06:53:40;;;;;;;7.60;4.65;;;;;;;21.76;70.08;101002.13;5032984;28;20061;-53
2022/06/30 06:56:11;;;;;;;6.53;4.00;;;;;;;21.81;69.89;100993.03;5032789;28;20060;-52
2022/06/30 06:58:40;;;;;;;5.78;3.45;;;;;;;21.92;69.93;100977.53;5033055;28;20049;-51
2022/06/30 07:01:22;;;;;;;8.93;4.45;;;;;;;22.03;69.92;100969.94;5032908;28;20052;-54
2022/06/30 07:03:53;;;;;;;8.98;3.92;;;;;;;22.14;69.68;100981.72;5023388;28;20053;-52
2022/06/30 07:06:21;;;;;;;9.27;3.92;;;;;;;22.17;70.10;100990.34;5033090;28;20060;-53
2022/06/30 07:08:50;;;;;;;10.95;3.72;;;;;;;22.21;70.32;100985.75;5032382;28;20054;-50
2022/06/30 07:11:22;;;;;;;13.95;5.22;;;;;;;22.24;70.38;100961.81;5033379;28;20072;-51
2022/06/30 07:13:49;;;;;;;19.85;5.10;;;;;;;22.22;70.21;100937.28;5031918;28;20054;-53
2022/06/30 07:19:02;;;;;;;6.32;3.70;;;;;;;22.16;69.93;100900.66;5015451;28;20049;-53
2022/06/30 07:21:31;;;;;;;9.15;4.20;;;;;;;22.11;69.93;100865.72;5032418;28;20049;-52
2022/06/30 07:24:01;;;;;;;4.40;3.50;;;;;;;22.08;69.90;100871.19;5032356;28;20053;-54
2022/06/30 07:26:31;;;;;;;10.07;3.40;;;;;;;22.06;70.08;100883.59;5032235;28;20076;-53
2022/06/30 07:29:01;;;;;;;27.25;4.63;;;;;;;22.08;69.82;100900.22;5032360;28;20148;-52
2022/06/30 07:31:43;;;;;;;10.05;3.72;;;;;;;22.12;69.64;100883.28;5032276;28;20054;-52
2022/06/30 07:34:13;;;;;;;4.68;3.38;;;;;;;22.14;69.49;100886.69;5032373;28;20398;-54
2022/06/30 07:36:42;;;;;;;4.03;3.30;;;;;;;22.16;69.34;100890.09;5032606;28;20359;-51
2022/06/30 07:39:13;;;;;;;9.65;3.30;;;;;;;22.20;69.50;100887.19;5032585;28;20050;-49
2022/06/30 07:41:41;;;;;;;7.15;3.22;;;;;;;22.24;69.39;100894.03;5032223;28;20558;-50
2022/06/30 07:44:09;;;;;;;5.78;3.45;;;;;;;22.30;69.34;100914.81;5032168;28;20045;-58
2022/06/30 07:46:45;;;;;;;50.58;5.47;;;;;;;22.38;69.34;100919.69;5031922;28;20087;-56
2022/06/30 07:49:15;;;;;;;46.88;4.90;;;;;;;22.45;69.30;100923.72;5032203;28;20055;-55
2022/06/30 07:51:46;;;;;;;6.35;3.30;;;;;;;22.55;68.91;100922.25;5033032;28;20073;-57
2022/06/30 07:54:16;;;;;;;6.75;3.30;;;;;;;22.65;68.51;100925.25;5032308;28;20049;-58
2022/06/30 07:56:44;;;;;;;5.07;3.33;;;;;;;22.73;68.43;100923.03;5031533;28;20076;-57
2022/06/30 07:59:16;;;;;;;8.88;3.72;;;;;;;22.79;68.11;100932.41;5032320;28;20446;-58
2022/06/30 08:01:50;;;;;;;9.15;3.08;;;;;;;22.86;67.97;100944.38;5032268;28;20081;-57
2022/06/30 08:04:19;;;;;;;6.03;3.38;;;;;;;22.86;67.82;100941.72;5030012;28;20060;-58
2022/06/30 08:07:01;;;;;;;58.05;6.72;;;;;;;22.88;67.83;100958.34;5031727;28;20058;-58
2022/06/30 08:09:29;;;;;;;7.95;3.53;;;;;;;22.88;67.90;100959.19;5031193;28;20053;-55
2022/06/30 08:11:56;;;;;;;7.45;3.75;;;;;;;22.98;67.79;100972.78;5031095;28;20153;-57
2022/06/30 08:14:24;;;;;;;6.55;3.10;;;;;;;23.06;67.52;100982.91;5031651;28;20757;-56
2022/06/30 08:17:04;;;;;;;5.35;3.25;;;;;;;23.11;67.26;100994.09;5031981;28;20056;-58
2022/06/30 08:19:33;;;;;;;8.13;3.22;;;;;;;23.18;67.12;100998.94;5030863;28;20067;-57
2022/06/30 08:22:09;;;;;;;6.95;3.67;;;;;;;23.27;66.94;101010.78;5030078;28;20049;-56
2022/06/30 08:24:47;;;;;;;4.60;3.00;;;;;;;23.31;66.57;101001.72;5030766;28;20053;-58
2022/06/30 08:27:17;;;;;;;21.80;4.80;;;;;;;23.39;66.61;101003.94;5034152;28;20053;-59
2022/06/30 08:32:34;;;;;;;6.70;2.83;;;;;;;23.48;65.87;101006.09;5035998;28;20493;-56
2022/06/30 08:35:03;;;;;;;8.38;3.70;;;;;;;23.52;65.85;101012.91;5019806;28;20149;-57
2022/06/30 08:37:37;;;;;;;7.32;3.75;;;;;;;23.57;65.65;101018.81;5035640;28;20049;-57
2022/06/30 08:43:01;;;;;;;6.47;3.05;;;;;;;23.66;65.79;101022.72;5035513;28;20052;-58
2022/06/30 08:45:29;;;;;;;6.03;3.38;;;;;;;23.71;65.82;101013.56;5035475;28;20085;-57
2022/06/30 08:47:59;;;;;;;22.70;4.75;;;;;;;23.77;65.66;101013.19;5035584;28;20053;-55
2022/06/30 08:50:26;;;;;;;8.82;3.08;;;;;;;23.85;65.71;101008.31;5035224;28;20045;-55
2022/06/30 08:52:59;;;;;;;13.55;3.90;;;;;;;23.98;65.40;101010.25;5035292;28;20450;-58
2022/06/30 08:55:29;;;;;;;5.95;3.47;;;;;;;24.15;65.04;101010.06;5035210;28;20049;-58
2022/06/30 08:58:04;;;;;;;6.22;3.92;;;;;;;24.34;64.54;101008.03;5035409;28;20060;-57
2022/06/30 09:00:35;;;;;;;;;;;;;;;24.45;64.30;101007.38;5035836;28;20056;-58
2022/06/30 09:03:05;;;;;;;27.42;4.57;;;;;;;24.60;63.98;100995.84;5030376;28;19925;-57
2022/06/30 09:05:32;;;;;;;4.47;3.05;;;;;;;24.80;63.47;100999.88;5034419;28;20486;-56
2022/06/30 09:07:59;;;;;;;4.70;3.00;;;;;;;24.97;63.01;101007.59;5035017;28;20373;-58
2022/06/30 09:10:28;;;;;;;83.72;9.23;;;;;;;25.17;62.44;101001.91;5034896;28;20107;-56
2022/06/30 09:13:04;;;;;;;167.02;15.65;;;;;;;25.37;61.52;101005.06;5033385;28;20049;-56
2022/06/30 09:15:33;;;;;;;6.13;3.55;;;;;;;25.57;60.98;101007.28;5034272;28;20093;-58
2022/06/30 09:18:03;;;;;;;3.22;2.65;;;;;;;25.72;60.91;101005.41;5035106;28;20711;-57
2022/06/30 09:20:42;;;;;;;4.45;3.30;;;;;;;25.91;59.22;101012.97;5034851;28;20077;-58
2022/06/30 09:23:31;;;;;;;3.30;2.78;;;;;;;26.00;58.04;101004.38;5019395;28;20119;-57
2022/06/30 09:26:02;;;;;;;33.80;4.93;;;;;;;26.07;57.57;101006.53;5034877;28;20057;-57
2022/06/30 09:29:08;;;;;;;8.27;2.67;;;;;;;26.19;56.39;101004.84;5035075;28;20494;-56
2022/06/30 09:31:35;;;;;;;;;;;;;;;26.26;54.99;101006.13;5023479;28;20049;-59
2022/06/30 09:34:25;;;;;;;4.35;2.05;;;;;;;26.36;55.72;101017.81;5033230;28;19925;-59
2022/06/30 09:36:56;;;;;;;3.67;2.60;;;;;;;26.44;55.03;101016.44;5033988;28;20129;-55
2022/06/30 09:39:36;;;;;;;7.78;3.00;;;;;;;26.47;54.56;101024.19;5034638;28;20136;-56
2022/06/30 09:42:13;;;;;;;13.13;3.60;;;;;;;26.44;54.38;101013.78;5034331;28;20111;-56
2022/06/30 09:44:47;;;;;;;6.75;2.70;;;;;;;26.44;54.17;101022.59;5033922;28;20045;-55
2022/06/30 09:47:23;;;;;;;5.47;2.55;;;;;;;26.46;53.98;101025.16;5034699;28;20045;-59
2022/06/30 09:52:39;;;;;;;71.82;7.22;;;;;;;26.62;54.08;101039.94;5034621;28;20482;-56
2022/06/30 09:55:09;;;;;;;3.47;2.70;;;;;;;26.71;53.62;101030.47;5019674;28;20049;-56
2022/06/30 09:57:39;;;;;;;4.22;2.75;;;;;;;26.77;53.28;101035.34;5034825;28;20096;-58
2022/06/30 10:00:11;;;;;;;31.02;4.95;;;;;;;26.84;53.26;101033.94;5034611;28;20049;-55
2022/06/30 10:02:41;;;;;;;6.72;3.28;;;;;;;26.96;53.30;101033.06;5034942;28;20049;-59
2022/06/30 10:05:19;;;;;;;5.72;2.83;;;;;;;27.07;53.14;101039.47;5035604;28;20132;-59
2022/06/30 10:07:49;;;;;;;6.18;3.13;;;;;;;27.15;52.69;101037.09;5033038;28;20079;-58
2022/06/30 10:10:18;;;;;;;3.92;2.70;;;;;;;27.23;53.04;101034.72;5034308;28;20575;-57
2022/06/30 10:12:47;;;;;;;7.18;2.95;;;;;;;27.28;52.61;101035.22;5034352;28;20078;-55
2022/06/30 10:15:16;;;;;;;4.63;2.65;;;;;;;27.34;52.92;101037.44;5032598;28;20045;-57
2022/06/30 10:17:47;;;;;;;4.82;2.97;;;;;;;27.39;52.60;101029.13;5033784;28;20128;-56
2022/06/30 10:23:06;;;;;;;13.30;3.72;;;;;;;27.47;52.00;101022.25;5033381;28;20057;-56
2022/06/30 10:25:34;;;;;;;4.40;3.13;;;;;;;27.45;51.92;101034.84;5032216;28;20140;-55
2022/06/30 10:28:11;;;;;;;9.52;3.42;;;;;;;27.45;52.00;101021.53;5032952;28;20045;-58
2022/06/30 10:30:52;;;;;;;4.78;3.22;;;;;;;27.49;52.08;101025.66;5033738;28;20053;-54
2022/06/30 10:33:30;;;;;;;4.63;3.20;;;;;;;27.55;51.89;101027.84;5033185;28;20057;-53
2022/06/30 10:36:05;;;;;;;5.07;2.75;;;;;;;27.64;51.75;101021.91;5033590;28;20049;-56
2022/06/30 10:38:57;;;;;;;5.35;3.05;;;;;;;27.75;51.63;101020.22;5033201;28;20073;-56
2022/06/30 10:41:34;;;;;;;4.80;3.35;;;;;;;27.82;51.19;101032.13;5027473;28;20049;-55
2022/06/30 10:44:24;;;;;;;4.78;3.20;;;;;;;27.88;51.38;101021.00;5032829;28;20063;-57
2022/06/30 10:47:12;;;;;;;6.63;3.67;;;;;;;27.98;50.55;101016.66;5032705;28;20075;-57
2022/06/30 10:50:01;;;;;;;5.07;2.72;;;;;;;28.04;50.13;101016.19;5032275;28;20053;-56
2022/06/30 10:52:39;;;;;;;59.20;8.27;;;;;;;28.07;50.19;101015.09;5032386;28;20059;-58
2022/06/30 10:55:12;;;;;;;5.30;2.70;;;;;;;28.05;50.25;101012.53;5017990;28;20148;-54
2022/06/30 10:58:13;;;;;;;22.85;4.57;;;;;;;28.09;49.24;101013.16;5034095;28;20046;-59
2022/06/30 11:01:02;;;;;;;10.02;2.65;;;;;;;28.09;47.60;101007.84;4975742;28;20058;-60
2022/06/30 11:04:00;;;;;;;2.63;2.25;;;;;;;28.09;47.33;101008.69;4991758;28;20054;-59
2022/06/30 11:07:01;;;;;;;3.03;2.28;;;;;;;28.09;47.35;101007.84;4982034;28;20447;-60
2022/06/30 11:12:59;;;;;;;2.17;1.83;;;;;;;27.96;47.69;100997.28;5030581;28;20053;-60
2022/06/30 11:16:02;;;;;;;44.72;5.35;;;;;;;27.94;47.51;100999.22;5032174;28;20053;-60
2022/06/30 11:18:31;;;;;;;5.38;2.70;;;;;;;27.92;47.79;100996.66;5029702;28;20599;-58
2022/06/30 11:21:01;;;;;;;2.97;2.30;;;;;;;27.95;47.78;101000.91;5031717;28;20119;-60
2022/06/30 11:23:31;;;;;;;3.90;2.85;;;;;;;27.94;47.69;100988.56;5031625;28;20577;-60
2022/06/30 11:29:03;;;;;;;7.63;2.88;;;;;;;27.90;47.60;100989.75;5031737;28;20110;-59
2022/06/30 11:31:34;;;;;;;6.13;2.88;;;;;;;27.86;47.86;100970.50;5032688;28;20617;-59
2022/06/30 11:34:06;;;;;;;5.95;2.40;;;;;;;27.86;47.94;100969.66;5033161;28;20570;-59
2022/06/30 11:36:36;;;;;;;66.63;7.07;;;;;;;27.87;49.27;100971.34;5033098;28;20041;-56
2022/06/30 11:39:14;;;;;;;7.68;3.80;;;;;;;27.90;50.85;100965.78;5031601;28;20064;-60
2022/06/30 11:41:59;;;;;;;13.82;4.22;;;;;;;27.93;51.66;100954.88;5025706;28;20053;-59
2022/06/30 11:44:38;;;;;;;7.15;3.40;;;;;;;27.96;52.18;100954.66;5028799;28;20046;-55
2022/06/30 11:47:10;;;;;;;6.88;4.10;;;;;;;28.05;52.63;100948.59;5033432;28;20188;-58
2022/06/30 11:49:44;;;;;;;6.68;3.78;;;;;;;28.09;52.69;100944.72;5030404;28;20536;-59
2022/06/30 11:52:22;;;;;;;9.52;3.88;;;;;;;28.13;52.86;100956.88;5032633;28;20048;-59
2022/06/30 11:54:53;;;;;;;27.90;5.55;;;;;;;28.14;52.67;100963.91;5031683;28;20058;-61
2022/06/30 11:57:29;;;;;;;20.13;4.85;;;;;;;28.17;52.81;100953.00;5034964;28;20053;-56
2022/06/30 12:00:16;;;;;;;92.40;9.52;;;;;;;28.14;53.18;100950.56;5033522;28;20049;-58
2022/06/30 12:02:45;;;;;;;9.63;3.78;;;;;;;28.11;53.35;100948.16;5036629;28;20042;-58
2022/06/30 12:05:15;;;;;;;27.83;5.43;;;;;;;28.07;53.52;100952.00;5032337;28;20053;-58
2022/06/30 12:07:44;;;;;;;5.47;3.45;;;;;;;27.98;53.65;100953.56;5035073;28;20488;-57
2022/06/30 12:10:24;;;;;;;23.55;4.47;;;;;;;27.90;54.05;100944.47;5035557;28;20045;-59
2022/06/30 12:12:52;;;;;;;31.45;5.90;;;;;;;27.89;54.09;100942.78;5034293;28;20053;-58
2022/06/30 12:15:25;;;;;;;8.60;3.45;;;;;;;27.94;54.05;100945.94;5033592;28;20493;-56
2022/06/30 12:17:57;;;;;;;7.40;3.60;;;;;;;27.93;54.05;100946.91;5026362;28;20049;-59